sensor_id;sensor_type;location;lat;lon;timestamp;temperature;humidity
59311;DHT22;45078;51.654;21.250;2023-05-23T00:01:22;8.50;99.90
59311;DHT22;45078;51.654;21.250;2023-05-23T00:03:49;8.40;99.90
59311;DHT22;45078;51.654;21.250;2023-05-23T00:06:19;8.40;99.90
59311;DHT22;45078;51.654;21.250;2023-05-23T00:08:45;8.40;99.90
59311;DHT22;45078;51.654;21.250;2023-05-23T00:11:11;8.30;99.90
59311;DHT22;45078;51.654;21.250;2023-05-23T00:13:38;8.30;99.90
59311;DHT22;45078;51.654;21.250;2023-05-23T00:16:05;8.20;99.90
59311;DHT22;45078;51.654;21.250;2023-05-23T00:18:35;8.10;99.90
59311;DHT22;45078;51.654;21.250;2023-05-23T00:23:36;8.10;99.90
59311;DHT22;45078;51.654;21.250;2023-05-23T00:26:02;8.10;99.90
59311;DHT22;45078;51.654;21.250;2023-05-23T00:28:29;8.00;99.90
59311;DHT22;45078;51.654;21.250;2023-05-23T00:30:55;8.00;99.90
59311;DHT22;45078;51.654;21.250;2023-05-23T00:33:20;8.00;99.90
59311;DHT22;45078;51.654;21.250;2023-05-23T00:35:47;8.00;99.90
59311;DHT22;45078;51.654;21.250;2023-05-23T00:38:13;8.00;99.90
59311;DHT22;45078;51.654;21.250;2023-05-23T00:40:39;8.00;99.90
59311;DHT22;45078;51.654;21.250;2023-05-23T00:43:05;7.90;99.90
59311;DHT22;45078;51.654;21.250;2023-05-23T00:45:32;8.00;99.90
59311;DHT22;45078;51.654;21.250;2023-05-23T00:47:59;8.00;99.90
59311;DHT22;45078;51.654;21.250;2023-05-23T00:50:26;7.90;99.90
59311;DHT22;45078;51.654;21.250;2023-05-23T00:52:56;7.90;99.90
59311;DHT22;45078;51.654;21.250;2023-05-23T00:55:24;7.80;99.90
59311;DHT22;45078;51.654;21.250;2023-05-23T00:57:53;7.80;99.90
59311;DHT22;45078;51.654;21.250;2023-05-23T01:00:20;7.80;99.90
59311;DHT22;45078;51.654;21.250;2023-05-23T01:02:47;7.70;99.90
59311;DHT22;45078;51.654;21.250;2023-05-23T01:05:17;7.70;99.90
59311;DHT22;45078;51.654;21.250;2023-05-23T01:07:47;7.60;99.90
59311;DHT22;45078;51.654;21.250;2023-05-23T01:10:14;7.60;99.90
59311;DHT22;45078;51.654;21.250;2023-05-23T01:21:13;7.50;99.90
59311;DHT22;45078;51.654;21.250;2023-05-23T01:23:59;7.50;99.90
59311;DHT22;45078;51.654;21.250;2023-05-23T01:29:23;7.40;99.90
59311;DHT22;45078;51.654;21.250;2023-05-23T01:31:52;7.40;99.90
59311;DHT22;45078;51.654;21.250;2023-05-23T01:34:20;7.40;99.90
59311;DHT22;45078;51.654;21.250;2023-05-23T01:36:49;7.40;99.90
59311;DHT22;45078;51.654;21.250;2023-05-23T01:39:18;7.30;99.90
59311;DHT22;45078;51.654;21.250;2023-05-23T01:41:44;7.30;99.90
59311;DHT22;45078;51.654;21.250;2023-05-23T01:44:10;7.30;99.90
59311;DHT22;45078;51.654;21.250;2023-05-23T01:46:36;7.30;99.90
59311;DHT22;45078;51.654;21.250;2023-05-23T01:49:05;7.30;99.90
59311;DHT22;45078;51.654;21.250;2023-05-23T01:51:32;7.30;99.90
59311;DHT22;45078;51.654;21.250;2023-05-23T01:53:59;7.20;99.90
59311;DHT22;45078;51.654;21.250;2023-05-23T01:56:26;7.20;99.90
59311;DHT22;45078;51.654;21.250;2023-05-23T01:58:53;7.20;99.90
59311;DHT22;45078;51.654;21.250;2023-05-23T02:01:19;7.20;99.90
59311;DHT22;45078;51.654;21.250;2023-05-23T02:03:45;7.20;99.90
59311;DHT22;45078;51.654;21.250;2023-05-23T02:06:11;7.10;99.90
59311;DHT22;45078;51.654;21.250;2023-05-23T02:08:37;7.10;99.90
59311;DHT22;45078;51.654;21.250;2023-05-23T02:11:03;7.10;99.90
59311;DHT22;45078;51.654;21.250;2023-05-23T02:13:29;7.10;99.90
59311;DHT22;45078;51.654;21.250;2023-05-23T02:15:55;7.10;99.90
59311;DHT22;45078;51.654;21.250;2023-05-23T02:18:22;7.00;99.90
59311;DHT22;45078;51.654;21.250;2023-05-23T02:20:50;7.00;99.90
59311;DHT22;45078;51.654;21.250;2023-05-23T02:23:16;6.90;99.90
59311;DHT22;45078;51.654;21.250;2023-05-23T02:25:42;6.90;99.90
59311;DHT22;45078;51.654;21.250;2023-05-23T02:28:08;6.90;99.90
59311;DHT22;45078;51.654;21.250;2023-05-23T02:30:36;6.90;99.90
59311;DHT22;45078;51.654;21.250;2023-05-23T02:33:06;6.90;99.90
59311;DHT22;45078;51.654;21.250;2023-05-23T02:35:32;6.90;99.90
59311;DHT22;45078;51.654;21.250;2023-05-23T02:37:59;6.80;99.90
59311;DHT22;45078;51.654;21.250;2023-05-23T02:40:25;6.80;99.90
59311;DHT22;45078;51.654;21.250;2023-05-23T02:42:51;6.80;99.90
59311;DHT22;45078;51.654;21.250;2023-05-23T02:45:17;6.80;99.90
59311;DHT22;45078;51.654;21.250;2023-05-23T02:47:43;6.80;99.90
59311;DHT22;45078;51.654;21.250;2023-05-23T02:50:09;6.80;99.90
59311;DHT22;45078;51.654;21.250;2023-05-23T02:52:35;6.80;99.90
59311;DHT22;45078;51.654;21.250;2023-05-23T02:55:01;6.90;99.90
59311;DHT22;45078;51.654;21.250;2023-05-23T02:57:26;6.90;99.90
59311;DHT22;45078;51.654;21.250;2023-05-23T02:59:52;7.00;99.90
59311;DHT22;45078;51.654;21.250;2023-05-23T03:02:18;7.00;99.90
59311;DHT22;45078;51.654;21.250;2023-05-23T03:04:44;7.00;99.90
59311;DHT22;45078;51.654;21.250;2023-05-23T03:07:10;7.10;99.90
59311;DHT22;45078;51.654;21.250;2023-05-23T03:09:38;7.10;99.90
59311;DHT22;45078;51.654;21.250;2023-05-23T03:12:04;7.10;99.90
59311;DHT22;45078;51.654;21.250;2023-05-23T03:14:30;7.20;99.90
59311;DHT22;45078;51.654;21.250;2023-05-23T03:16:56;7.30;99.90
59311;DHT22;45078;51.654;21.250;2023-05-23T03:19:22;7.40;99.90
59311;DHT22;45078;51.654;21.250;2023-05-23T03:21:49;7.40;99.90
59311;DHT22;45078;51.654;21.250;2023-05-23T03:24:15;7.50;99.90
59311;DHT22;45078;51.654;21.250;2023-05-23T03:26:41;7.60;99.90
59311;DHT22;45078;51.654;21.250;2023-05-23T03:29:07;7.60;99.90
59311;DHT22;45078;51.654;21.250;2023-05-23T03:31:35;7.70;99.90
59311;DHT22;45078;51.654;21.250;2023-05-23T03:34:01;7.80;99.90
59311;DHT22;45078;51.654;21.250;2023-05-23T03:36:27;7.90;99.90
59311;DHT22;45078;51.654;21.250;2023-05-23T03:38:53;8.00;99.90
59311;DHT22;45078;51.654;21.250;2023-05-23T03:41:18;8.10;99.90
59311;DHT22;45078;51.654;21.250;2023-05-23T03:43:44;8.50;99.90
59311;DHT22;45078;51.654;21.250;2023-05-23T03:46:10;8.60;99.90
59311;DHT22;45078;51.654;21.250;2023-05-23T03:48:36;8.70;99.90
59311;DHT22;45078;51.654;21.250;2023-05-23T03:51:01;8.80;99.90
59311;DHT22;45078;51.654;21.250;2023-05-23T03:53:27;9.00;99.90
59311;DHT22;45078;51.654;21.250;2023-05-23T03:55:53;9.20;99.90
59311;DHT22;45078;51.654;21.250;2023-05-23T03:58:19;9.30;99.90
59311;DHT22;45078;51.654;21.250;2023-05-23T04:00:45;9.60;99.90
59311;DHT22;45078;51.654;21.250;2023-05-23T04:03:11;10.00;99.90
59311;DHT22;45078;51.654;21.250;2023-05-23T04:05:40;10.30;99.90
59311;DHT22;45078;51.654;21.250;2023-05-23T04:08:05;10.50;99.90
59311;DHT22;45078;51.654;21.250;2023-05-23T04:10:32;10.80;99.90
59311;DHT22;45078;51.654;21.250;2023-05-23T04:12:58;11.10;99.90
59311;DHT22;45078;51.654;21.250;2023-05-23T04:15:24;11.20;99.90
59311;DHT22;45078;51.654;21.250;2023-05-23T04:17:50;11.40;99.90
59311;DHT22;45078;51.654;21.250;2023-05-23T04:20:16;11.60;99.90
59311;DHT22;45078;51.654;21.250;2023-05-23T04:22:42;11.80;99.90
59311;DHT22;45078;51.654;21.250;2023-05-23T04:25:08;12.00;99.90
59311;DHT22;45078;51.654;21.250;2023-05-23T04:27:34;12.10;99.90
59311;DHT22;45078;51.654;21.250;2023-05-23T04:30:00;12.30;99.90
59311;DHT22;45078;51.654;21.250;2023-05-23T04:32:26;12.40;99.90
59311;DHT22;45078;51.654;21.250;2023-05-23T04:34:52;12.60;99.90
59311;DHT22;45078;51.654;21.250;2023-05-23T04:37:18;12.80;99.90
59311;DHT22;45078;51.654;21.250;2023-05-23T04:39:50;12.90;99.90
59311;DHT22;45078;51.654;21.250;2023-05-23T04:42:16;13.10;99.90
59311;DHT22;45078;51.654;21.250;2023-05-23T04:44:43;13.20;99.90
59311;DHT22;45078;51.654;21.250;2023-05-23T04:47:08;13.30;99.90
59311;DHT22;45078;51.654;21.250;2023-05-23T04:49:36;13.50;99.90
59311;DHT22;45078;51.654;21.250;2023-05-23T04:52:02;13.60;99.90
59311;DHT22;45078;51.654;21.250;2023-05-23T04:54:27;13.80;99.90
59311;DHT22;45078;51.654;21.250;2023-05-23T04:56:53;13.90;99.90
59311;DHT22;45078;51.654;21.250;2023-05-23T04:59:19;14.00;99.90
59311;DHT22;45078;51.654;21.250;2023-05-23T05:01:44;14.20;99.90
59311;DHT22;45078;51.654;21.250;2023-05-23T05:04:10;14.40;99.90
59311;DHT22;45078;51.654;21.250;2023-05-23T05:06:36;14.50;99.90
59311;DHT22;45078;51.654;21.250;2023-05-23T05:09:02;14.70;99.90
59311;DHT22;45078;51.654;21.250;2023-05-23T05:11:28;14.90;99.90
59311;DHT22;45078;51.654;21.250;2023-05-23T05:13:54;15.10;99.90
59311;DHT22;45078;51.654;21.250;2023-05-23T05:16:19;15.30;99.90
59311;DHT22;45078;51.654;21.250;2023-05-23T05:18:46;15.50;99.90
59311;DHT22;45078;51.654;21.250;2023-05-23T05:21:11;15.60;99.90
59311;DHT22;45078;51.654;21.250;2023-05-23T05:23:37;15.80;99.90
59311;DHT22;45078;51.654;21.250;2023-05-23T05:26:03;15.90;99.90
59311;DHT22;45078;51.654;21.250;2023-05-23T05:28:29;16.10;99.90
59311;DHT22;45078;51.654;21.250;2023-05-23T05:30:55;16.20;99.90
59311;DHT22;45078;51.654;21.250;2023-05-23T05:33:21;16.30;99.90
59311;DHT22;45078;51.654;21.250;2023-05-23T05:35:48;16.50;99.90
59311;DHT22;45078;51.654;21.250;2023-05-23T05:38:16;16.70;99.90
59311;DHT22;45078;51.654;21.250;2023-05-23T05:40:42;16.90;99.90
59311;DHT22;45078;51.654;21.250;2023-05-23T05:43:07;16.90;99.90
59311;DHT22;45078;51.654;21.250;2023-05-23T05:45:34;17.10;99.90
59311;DHT22;45078;51.654;21.250;2023-05-23T05:48:00;17.10;99.90
59311;DHT22;45078;51.654;21.250;2023-05-23T05:50:26;17.50;99.90
59311;DHT22;45078;51.654;21.250;2023-05-23T05:52:52;17.60;99.90
59311;DHT22;45078;51.654;21.250;2023-05-23T05:55:18;17.80;99.90
59311;DHT22;45078;51.654;21.250;2023-05-23T05:57:43;17.90;99.90
59311;DHT22;45078;51.654;21.250;2023-05-23T06:00:11;18.20;99.90
59311;DHT22;45078;51.654;21.250;2023-05-23T06:02:42;18.20;99.90
59311;DHT22;45078;51.654;21.250;2023-05-23T06:05:09;18.20;99.90
59311;DHT22;45078;51.654;21.250;2023-05-23T06:07:40;18.40;99.90
59311;DHT22;45078;51.654;21.250;2023-05-23T06:10:06;18.50;99.90
59311;DHT22;45078;51.654;21.250;2023-05-23T06:12:35;18.50;99.90
59311;DHT22;45078;51.654;21.250;2023-05-23T06:15:01;18.60;99.90
59311;DHT22;45078;51.654;21.250;2023-05-23T06:17:27;18.70;99.90
59311;DHT22;45078;51.654;21.250;2023-05-23T06:19:53;18.80;99.20
59311;DHT22;45078;51.654;21.250;2023-05-23T06:22:18;18.60;99.90
59311;DHT22;45078;51.654;21.250;2023-05-23T06:24:44;18.70;99.90
59311;DHT22;45078;51.654;21.250;2023-05-23T06:27:11;18.70;99.90
59311;DHT22;45078;51.654;21.250;2023-05-23T06:29:37;18.90;99.90
59311;DHT22;45078;51.654;21.250;2023-05-23T06:32:03;19.10;99.90
59311;DHT22;45078;51.654;21.250;2023-05-23T06:34:29;19.30;98.40
59311;DHT22;45078;51.654;21.250;2023-05-23T06:36:55;19.20;97.90
59311;DHT22;45078;51.654;21.250;2023-05-23T06:39:24;19.10;96.90
59311;DHT22;45078;51.654;21.250;2023-05-23T06:41:50;19.30;99.90
59311;DHT22;45078;51.654;21.250;2023-05-23T06:44:15;19.40;98.20
59311;DHT22;45078;51.654;21.250;2023-05-23T06:46:44;19.70;96.90
59311;DHT22;45078;51.654;21.250;2023-05-23T06:49:11;19.70;96.00
59311;DHT22;45078;51.654;21.250;2023-05-23T06:51:36;19.70;94.30
59311;DHT22;45078;51.654;21.250;2023-05-23T06:54:02;19.80;94.20
59311;DHT22;45078;51.654;21.250;2023-05-23T06:56:28;20.00;95.30
59311;DHT22;45078;51.654;21.250;2023-05-23T06:58:54;20.10;93.50
59311;DHT22;45078;51.654;21.250;2023-05-23T07:01:20;20.20;93.00
59311;DHT22;45078;51.654;21.250;2023-05-23T07:03:45;20.30;93.70
59311;DHT22;45078;51.654;21.250;2023-05-23T07:06:11;20.40;91.90
59311;DHT22;45078;51.654;21.250;2023-05-23T07:08:37;20.50;91.70
59311;DHT22;45078;51.654;21.250;2023-05-23T07:11:04;20.40;92.90
59311;DHT22;45078;51.654;21.250;2023-05-23T07:13:30;20.50;89.10
59311;DHT22;45078;51.654;21.250;2023-05-23T07:15:57;20.40;92.40
59311;DHT22;45078;51.654;21.250;2023-05-23T07:18:23;20.40;91.40
59311;DHT22;45078;51.654;21.250;2023-05-23T07:20:48;20.50;90.60
59311;DHT22;45078;51.654;21.250;2023-05-23T07:23:14;20.50;89.40
59311;DHT22;45078;51.654;21.250;2023-05-23T07:25:40;20.60;90.60
59311;DHT22;45078;51.654;21.250;2023-05-23T07:28:08;20.50;88.90
59311;DHT22;45078;51.654;21.250;2023-05-23T07:30:33;20.40;84.30
59311;DHT22;45078;51.654;21.250;2023-05-23T07:32:59;20.30;85.20
59311;DHT22;45078;51.654;21.250;2023-05-23T07:35:25;20.50;83.40
59311;DHT22;45078;51.654;21.250;2023-05-23T07:37:52;20.60;82.30
59311;DHT22;45078;51.654;21.250;2023-05-23T07:40:18;20.60;82.50
59311;DHT22;45078;51.654;21.250;2023-05-23T07:42:44;20.90;83.80
59311;DHT22;45078;51.654;21.250;2023-05-23T07:45:10;20.90;82.10
59311;DHT22;45078;51.654;21.250;2023-05-23T07:47:36;21.00;82.90
59311;DHT22;45078;51.654;21.250;2023-05-23T07:50:02;21.10;85.60
59311;DHT22;45078;51.654;21.250;2023-05-23T07:52:31;21.20;81.20
59311;DHT22;45078;51.654;21.250;2023-05-23T07:54:57;21.30;78.70
59311;DHT22;45078;51.654;21.250;2023-05-23T07:57:23;21.20;82.20
59311;DHT22;45078;51.654;21.250;2023-05-23T07:59:50;21.30;78.30
59311;DHT22;45078;51.654;21.250;2023-05-23T08:02:16;21.20;75.50
59311;DHT22;45078;51.654;21.250;2023-05-23T08:04:42;21.20;77.40
59311;DHT22;45078;51.654;21.250;2023-05-23T08:07:08;21.40;72.30
59311;DHT22;45078;51.654;21.250;2023-05-23T08:09:34;21.40;72.60
59311;DHT22;45078;51.654;21.250;2023-05-23T08:12:00;21.50;76.00
59311;DHT22;45078;51.654;21.250;2023-05-23T08:14:26;21.60;77.80
59311;DHT22;45078;51.654;21.250;2023-05-23T08:16:52;21.80;81.20
59311;DHT22;45078;51.654;21.250;2023-05-23T08:19:17;21.80;77.10
59311;DHT22;45078;51.654;21.250;2023-05-23T08:21:44;22.00;77.80
59311;DHT22;45078;51.654;21.250;2023-05-23T08:24:09;21.90;72.00
59311;DHT22;45078;51.654;21.250;2023-05-23T08:26:38;21.70;76.60
59311;DHT22;45078;51.654;21.250;2023-05-23T08:29:03;21.90;76.20
59311;DHT22;45078;51.654;21.250;2023-05-23T08:31:32;21.90;72.40
59311;DHT22;45078;51.654;21.250;2023-05-23T08:33:58;21.70;73.00
59311;DHT22;45078;51.654;21.250;2023-05-23T08:36:24;21.80;69.30
59311;DHT22;45078;51.654;21.250;2023-05-23T08:38:50;21.90;69.70
59311;DHT22;45078;51.654;21.250;2023-05-23T08:41:21;21.80;70.80
59311;DHT22;45078;51.654;21.250;2023-05-23T08:43:47;22.00;69.30
59311;DHT22;45078;51.654;21.250;2023-05-23T08:46:16;22.10;70.90
59311;DHT22;45078;51.654;21.250;2023-05-23T08:48:43;22.20;70.60
59311;DHT22;45078;51.654;21.250;2023-05-23T08:51:14;22.30;70.00
59311;DHT22;45078;51.654;21.250;2023-05-23T08:53:42;22.20;64.90
59311;DHT22;45078;51.654;21.250;2023-05-23T08:56:14;22.20;62.60
59311;DHT22;45078;51.654;21.250;2023-05-23T08:58:41;22.10;64.50
59311;DHT22;45078;51.654;21.250;2023-05-23T09:01:10;22.10;67.20
59311;DHT22;45078;51.654;21.250;2023-05-23T09:03:38;22.30;66.20
59311;DHT22;45078;51.654;21.250;2023-05-23T09:06:08;22.30;65.60
59311;DHT22;45078;51.654;21.250;2023-05-23T09:08:36;22.30;67.10
59311;DHT22;45078;51.654;21.250;2023-05-23T09:11:05;22.40;67.00
59311;DHT22;45078;51.654;21.250;2023-05-23T09:13:32;22.60;66.50
59311;DHT22;45078;51.654;21.250;2023-05-23T09:18:27;22.50;63.70
59311;DHT22;45078;51.654;21.250;2023-05-23T09:20:57;22.30;63.60
59311;DHT22;45078;51.654;21.250;2023-05-23T09:23:23;22.30;64.80
59311;DHT22;45078;51.654;21.250;2023-05-23T09:25:49;22.30;64.50
59311;DHT22;45078;51.654;21.250;2023-05-23T09:28:15;22.60;68.70
59311;DHT22;45078;51.654;21.250;2023-05-23T09:30:41;22.50;66.80
59311;DHT22;45078;51.654;21.250;2023-05-23T09:33:06;22.60;64.40
59311;DHT22;45078;51.654;21.250;2023-05-23T09:35:32;22.90;72.20
59311;DHT22;45078;51.654;21.250;2023-05-23T09:37:58;23.20;68.80
59311;DHT22;45078;51.654;21.250;2023-05-23T09:40:31;23.10;67.80
59311;DHT22;45078;51.654;21.250;2023-05-23T09:43:04;23.20;70.70
59311;DHT22;45078;51.654;21.250;2023-05-23T09:45:32;23.10;63.60
59311;DHT22;45078;51.654;21.250;2023-05-23T09:47:58;23.10;64.40
59311;DHT22;45078;51.654;21.250;2023-05-23T09:50:33;23.00;64.30
59311;DHT22;45078;51.654;21.250;2023-05-23T09:53:00;22.70;63.50
59311;DHT22;45078;51.654;21.250;2023-05-23T09:55:26;22.90;61.90
59311;DHT22;45078;51.654;21.250;2023-05-23T09:57:53;22.90;65.50
59311;DHT22;45078;51.654;21.250;2023-05-23T10:00:22;23.00;65.10
59311;DHT22;45078;51.654;21.250;2023-05-23T10:03:08;23.10;60.50
59311;DHT22;45078;51.654;21.250;2023-05-23T10:05:50;23.00;61.70
59311;DHT22;45078;51.654;21.250;2023-05-23T10:08:35;23.00;61.50
59311;DHT22;45078;51.654;21.250;2023-05-23T10:17:06;23.10;62.10
59311;DHT22;45078;51.654;21.250;2023-05-23T10:19:57;23.10;59.80
59311;DHT22;45078;51.654;21.250;2023-05-23T10:22:25;23.50;63.50
59311;DHT22;45078;51.654;21.250;2023-05-23T10:24:52;23.50;58.40
59311;DHT22;45078;51.654;21.250;2023-05-23T10:27:18;23.30;59.70
59311;DHT22;45078;51.654;21.250;2023-05-23T10:29:44;23.40;61.60
59311;DHT22;45078;51.654;21.250;2023-05-23T10:32:11;23.20;60.20
59311;DHT22;45078;51.654;21.250;2023-05-23T10:34:58;23.30;59.50
59311;DHT22;45078;51.654;21.250;2023-05-23T10:37:47;23.60;63.60
59311;DHT22;45078;51.654;21.250;2023-05-23T10:40:30;23.50;60.70
59311;DHT22;45078;51.654;21.250;2023-05-23T10:43:24;23.40;60.70
59311;DHT22;45078;51.654;21.250;2023-05-23T10:45:51;23.60;63.40
59311;DHT22;45078;51.654;21.250;2023-05-23T10:51:06;23.90;63.20
59311;DHT22;45078;51.654;21.250;2023-05-23T10:53:35;24.00;59.30
59311;DHT22;45078;51.654;21.250;2023-05-23T10:56:03;24.00;59.60
59311;DHT22;45078;51.654;21.250;2023-05-23T10:58:29;24.10;57.80
59311;DHT22;45078;51.654;21.250;2023-05-23T11:01:00;24.00;58.50
59311;DHT22;45078;51.654;21.250;2023-05-23T11:03:37;24.10;58.70
59311;DHT22;45078;51.654;21.250;2023-05-23T11:09:05;23.40;58.50
59311;DHT22;45078;51.654;21.250;2023-05-23T11:11:53;23.60;61.20
59311;DHT22;45078;51.654;21.250;2023-05-23T11:17:16;23.60;58.10
59311;DHT22;45078;51.654;21.250;2023-05-23T11:22:27;24.10;58.80
59311;DHT22;45078;51.654;21.250;2023-05-23T11:24:55;23.90;58.50
59311;DHT22;45078;51.654;21.250;2023-05-23T11:27:35;24.20;57.70
59311;DHT22;45078;51.654;21.250;2023-05-23T11:30:14;23.90;58.90
59311;DHT22;45078;51.654;21.250;2023-05-23T11:32:42;23.80;57.50
59311;DHT22;45078;51.654;21.250;2023-05-23T11:35:15;24.10;59.20
59311;DHT22;45078;51.654;21.250;2023-05-23T11:37:42;24.40;59.80
59311;DHT22;45078;51.654;21.250;2023-05-23T11:42:53;24.90;61.50
59311;DHT22;45078;51.654;21.250;2023-05-23T11:45:20;25.10;57.80
59311;DHT22;45078;51.654;21.250;2023-05-23T11:47:46;24.80;57.80
59311;DHT22;45078;51.654;21.250;2023-05-23T11:50:13;24.70;57.40
59311;DHT22;45078;51.654;21.250;2023-05-23T11:52:39;24.40;57.90
59311;DHT22;45078;51.654;21.250;2023-05-23T11:55:06;24.20;56.40
59311;DHT22;45078;51.654;21.250;2023-05-23T11:57:32;24.50;57.60
59311;DHT22;45078;51.654;21.250;2023-05-23T11:59:58;24.30;57.90
59311;DHT22;45078;51.654;21.250;2023-05-23T12:02:27;24.60;59.60
59311;DHT22;45078;51.654;21.250;2023-05-23T12:04:52;24.70;59.60
59311;DHT22;45078;51.654;21.250;2023-05-23T12:07:19;24.50;57.50
59311;DHT22;45078;51.654;21.250;2023-05-23T12:09:45;24.50;57.60
59311;DHT22;45078;51.654;21.250;2023-05-23T12:12:12;24.50;59.10
59311;DHT22;45078;51.654;21.250;2023-05-23T12:14:38;24.60;58.00
59311;DHT22;45078;51.654;21.250;2023-05-23T12:17:12;24.30;58.50
59311;DHT22;45078;51.654;21.250;2023-05-23T12:19:38;24.70;60.60
59311;DHT22;45078;51.654;21.250;2023-05-23T12:22:05;24.40;56.60
59311;DHT22;45078;51.654;21.250;2023-05-23T12:24:34;24.30;58.20
59311;DHT22;45078;51.654;21.250;2023-05-23T12:27:01;24.30;59.20
59311;DHT22;45078;51.654;21.250;2023-05-23T12:29:32;24.20;60.90
59311;DHT22;45078;51.654;21.250;2023-05-23T12:31:59;24.30;57.40
59311;DHT22;45078;51.654;21.250;2023-05-23T12:34:26;24.60;57.20
59311;DHT22;45078;51.654;21.250;2023-05-23T12:36:59;24.90;59.20
59311;DHT22;45078;51.654;21.250;2023-05-23T12:39:28;24.80;57.30
59311;DHT22;45078;51.654;21.250;2023-05-23T12:41:55;24.60;57.60
59311;DHT22;45078;51.654;21.250;2023-05-23T12:44:31;24.40;55.40
59311;DHT22;45078;51.654;21.250;2023-05-23T12:46:56;24.50;57.90
59311;DHT22;45078;51.654;21.250;2023-05-23T12:49:22;24.60;57.70
59311;DHT22;45078;51.654;21.250;2023-05-23T12:51:48;24.50;56.40
59311;DHT22;45078;51.654;21.250;2023-05-23T12:54:14;24.50;55.30
59311;DHT22;45078;51.654;21.250;2023-05-23T12:56:40;24.70;57.90
59311;DHT22;45078;51.654;21.250;2023-05-23T12:59:05;25.00;56.70
59311;DHT22;45078;51.654;21.250;2023-05-23T13:01:33;24.80;54.90
59311;DHT22;45078;51.654;21.250;2023-05-23T13:04:00;25.20;59.90
59311;DHT22;45078;51.654;21.250;2023-05-23T13:06:26;25.00;54.00
59311;DHT22;45078;51.654;21.250;2023-05-23T13:08:52;25.40;52.70
59311;DHT22;45078;51.654;21.250;2023-05-23T13:11:22;25.50;53.60
59311;DHT22;45078;51.654;21.250;2023-05-23T13:13:49;25.60;54.20
59311;DHT22;45078;51.654;21.250;2023-05-23T13:16:16;25.50;54.70
59311;DHT22;45078;51.654;21.250;2023-05-23T13:18:42;25.70;53.80
59311;DHT22;45078;51.654;21.250;2023-05-23T13:21:08;26.50;57.80
59311;DHT22;45078;51.654;21.250;2023-05-23T13:23:34;26.20;54.80
59311;DHT22;45078;51.654;21.250;2023-05-23T13:26:01;25.80;55.00
59311;DHT22;45078;51.654;21.250;2023-05-23T13:28:26;25.50;56.60
59311;DHT22;45078;51.654;21.250;2023-05-23T13:30:52;25.10;57.30
59311;DHT22;45078;51.654;21.250;2023-05-23T13:33:18;25.20;57.00
59311;DHT22;45078;51.654;21.250;2023-05-23T13:35:44;25.30;55.10
59311;DHT22;45078;51.654;21.250;2023-05-23T13:38:09;25.50;56.00
59311;DHT22;45078;51.654;21.250;2023-05-23T13:40:36;25.70;58.30
59311;DHT22;45078;51.654;21.250;2023-05-23T13:43:01;26.00;53.60
59311;DHT22;45078;51.654;21.250;2023-05-23T13:45:27;26.30;55.10
59311;DHT22;45078;51.654;21.250;2023-05-23T13:47:54;27.00;55.70
59311;DHT22;45078;51.654;21.250;2023-05-23T13:50:20;27.00;53.70
59311;DHT22;45078;51.654;21.250;2023-05-23T13:52:46;26.90;55.80
59311;DHT22;45078;51.654;21.250;2023-05-23T13:55:12;26.40;56.30
59311;DHT22;45078;51.654;21.250;2023-05-23T13:57:37;26.00;54.40
59311;DHT22;45078;51.654;21.250;2023-05-23T14:00:03;26.30;55.30
59311;DHT22;45078;51.654;21.250;2023-05-23T14:02:29;26.70;56.10
59311;DHT22;45078;51.654;21.250;2023-05-23T14:04:57;26.90;55.00
59311;DHT22;45078;51.654;21.250;2023-05-23T14:07:23;27.10;56.30
59311;DHT22;45078;51.654;21.250;2023-05-23T14:09:48;27.40;53.50
59311;DHT22;45078;51.654;21.250;2023-05-23T14:12:14;27.30;54.00
59311;DHT22;45078;51.654;21.250;2023-05-23T14:14:40;26.80;52.90
59311;DHT22;45078;51.654;21.250;2023-05-23T14:17:06;27.00;53.40
59311;DHT22;45078;51.654;21.250;2023-05-23T14:19:32;26.70;53.60
59311;DHT22;45078;51.654;21.250;2023-05-23T14:21:57;26.80;55.80
59311;DHT22;45078;51.654;21.250;2023-05-23T14:24:23;27.00;54.60
59311;DHT22;45078;51.654;21.250;2023-05-23T14:26:49;27.60;56.30
59311;DHT22;45078;51.654;21.250;2023-05-23T14:29:15;27.80;54.20
59311;DHT22;45078;51.654;21.250;2023-05-23T14:31:41;27.60;53.20
59311;DHT22;45078;51.654;21.250;2023-05-23T14:34:06;27.50;54.60
59311;DHT22;45078;51.654;21.250;2023-05-23T14:36:32;27.10;54.00
59311;DHT22;45078;51.654;21.250;2023-05-23T14:38:58;27.00;56.20
59311;DHT22;45078;51.654;21.250;2023-05-23T14:41:25;26.20;55.10
59311;DHT22;45078;51.654;21.250;2023-05-23T14:43:53;26.00;55.60
59311;DHT22;45078;51.654;21.250;2023-05-23T14:46:18;26.10;56.70
59311;DHT22;45078;51.654;21.250;2023-05-23T14:48:44;26.00;57.80
59311;DHT22;45078;51.654;21.250;2023-05-23T14:51:10;26.20;57.40
59311;DHT22;45078;51.654;21.250;2023-05-23T14:53:36;26.00;55.00
59311;DHT22;45078;51.654;21.250;2023-05-23T14:56:02;25.80;54.70
59311;DHT22;45078;51.654;21.250;2023-05-23T14:58:27;25.70;57.30
59311;DHT22;45078;51.654;21.250;2023-05-23T15:00:53;25.40;57.60
59311;DHT22;45078;51.654;21.250;2023-05-23T15:03:19;25.40;55.80
59311;DHT22;45078;51.654;21.250;2023-05-23T15:05:45;25.20;55.90
59311;DHT22;45078;51.654;21.250;2023-05-23T15:08:11;24.90;56.70
59311;DHT22;45078;51.654;21.250;2023-05-23T15:10:36;25.00;57.80
59311;DHT22;45078;51.654;21.250;2023-05-23T15:13:02;24.90;58.10
59311;DHT22;45078;51.654;21.250;2023-05-23T15:15:28;25.10;59.00
59311;DHT22;45078;51.654;21.250;2023-05-23T15:18:02;24.70;57.00
59311;DHT22;45078;51.654;21.250;2023-05-23T15:20:31;24.60;57.80
59311;DHT22;45078;51.654;21.250;2023-05-23T15:22:57;24.50;58.50
59311;DHT22;45078;51.654;21.250;2023-05-23T15:25:23;24.30;59.40
59311;DHT22;45078;51.654;21.250;2023-05-23T15:27:51;24.30;59.00
59311;DHT22;45078;51.654;21.250;2023-05-23T15:30:18;24.40;58.50
59311;DHT22;45078;51.654;21.250;2023-05-23T15:32:44;24.30;59.50
59311;DHT22;45078;51.654;21.250;2023-05-23T15:35:09;24.30;58.60
59311;DHT22;45078;51.654;21.250;2023-05-23T15:37:35;24.40;61.80
59311;DHT22;45078;51.654;21.250;2023-05-23T15:40:01;24.40;59.30
59311;DHT22;45078;51.654;21.250;2023-05-23T15:42:28;24.50;59.00
59311;DHT22;45078;51.654;21.250;2023-05-23T15:44:54;24.60;57.70
59311;DHT22;45078;51.654;21.250;2023-05-23T15:47:20;24.70;59.60
59311;DHT22;45078;51.654;21.250;2023-05-23T15:49:46;24.40;58.50
59311;DHT22;45078;51.654;21.250;2023-05-23T15:52:11;24.20;58.30
59311;DHT22;45078;51.654;21.250;2023-05-23T15:54:37;24.10;59.90
59311;DHT22;45078;51.654;21.250;2023-05-23T15:57:03;23.90;59.70